createdAt,value
2018-06-17T00:00:07.364Z,14.86
2018-06-17T00:01:07.356Z,14.84
2018-06-17T00:02:07.349Z,14.81
2018-06-17T00:03:07.343Z,14.78
2018-06-17T00:04:07.335Z,14.78
2018-06-17T00:05:07.330Z,14.79
2018-06-17T00:06:07.321Z,14.79
2018-06-17T00:07:07.314Z,14.78
2018-06-17T00:08:07.307Z,14.70
2018-06-17T00:09:07.300Z,14.82
2018-06-17T00:10:07.292Z,14.72
2018-06-17T00:11:07.286Z,14.70
2018-06-17T00:12:07.279Z,14.72
2018-06-17T00:13:07.272Z,14.68
2018-06-17T00:14:07.268Z,14.69
2018-06-17T00:15:07.257Z,14.81
2018-06-17T00:16:07.251Z,14.82
2018-06-17T00:18:07.236Z,14.72
2018-06-17T00:19:07.229Z,14.73
2018-06-17T00:20:07.222Z,14.68
2018-06-17T00:21:07.220Z,14.69
2018-06-17T00:22:07.208Z,14.69
2018-06-17T00:23:07.201Z,14.81
2018-06-17T00:24:07.194Z,14.70
2018-06-17T00:25:07.187Z,14.72
2018-06-17T00:26:07.182Z,14.73
2018-06-17T00:27:07.173Z,14.68
2018-06-17T00:28:07.166Z,14.72
2018-06-17T00:29:07.163Z,14.69
2018-06-17T00:30:07.151Z,14.62
2018-06-17T00:31:07.144Z,14.63
2018-06-17T00:32:07.137Z,14.69
2018-06-17T00:33:07.130Z,14.66
2018-06-17T00:34:07.123Z,14.65
2018-06-17T00:35:07.116Z,14.62
2018-06-17T00:36:07.109Z,14.59
2018-06-17T00:37:07.104Z,14.63
2018-06-17T00:38:07.094Z,14.55
2018-06-17T00:39:07.123Z,14.62
2018-06-17T00:40:07.085Z,14.48
2018-06-17T00:41:07.076Z,14.44
2018-06-17T00:42:07.065Z,14.45
2018-06-17T00:43:07.058Z,14.53
2018-06-17T00:44:07.052Z,14.48
2018-06-17T00:45:07.048Z,14.47
2018-06-17T00:46:07.037Z,14.43
2018-06-17T00:47:07.029Z,14.41
2018-06-17T00:48:07.025Z,14.45
2018-06-17T00:49:07.021Z,14.35
2018-06-17T00:50:07.009Z,14.35
2018-06-17T00:51:07.000Z,14.35
2018-06-17T00:52:06.995Z,14.33
2018-06-17T00:53:06.987Z,14.35
2018-06-17T00:54:06.981Z,14.33
2018-06-17T00:55:06.971Z,14.32
2018-06-17T00:56:06.968Z,14.30
2018-06-17T00:57:06.957Z,14.25
2018-06-17T00:58:06.948Z,14.30
2018-06-17T00:59:06.942Z,14.23
2018-06-17T01:00:06.937Z,14.33
2018-06-17T01:01:06.927Z,14.30
2018-06-17T01:02:06.920Z,14.25
2018-06-17T01:03:06.912Z,14.40
2018-06-17T01:04:06.905Z,14.25
2018-06-17T01:05:06.899Z,14.28
2018-06-17T01:06:06.890Z,14.28
2018-06-17T01:07:06.882Z,14.26
2018-06-17T01:08:06.875Z,14.33
2018-06-17T01:09:06.868Z,14.30
2018-06-17T01:10:06.860Z,14.36
2018-06-17T01:11:06.858Z,14.30
2018-06-17T01:12:06.849Z,14.30
2018-06-17T01:13:06.839Z,14.26
2018-06-17T01:14:06.830Z,14.26
2018-06-17T01:15:06.825Z,14.25
2018-06-17T01:16:06.816Z,14.23
2018-06-17T01:17:06.809Z,14.23
2018-06-17T01:18:06.800Z,14.29
2018-06-17T01:19:06.794Z,14.26
2018-06-17T01:20:06.786Z,14.23
2018-06-17T01:21:06.781Z,14.25
2018-06-17T01:22:06.772Z,14.11
2018-06-17T01:23:06.764Z,14.20
2018-06-17T01:24:06.757Z,14.22
2018-06-17T01:25:06.749Z,14.14
2018-06-17T01:26:06.741Z,14.20
2018-06-17T01:27:06.738Z,14.28
2018-06-17T01:28:06.727Z,14.30
2018-06-17T01:29:06.719Z,14.30
2018-06-17T01:30:06.715Z,14.33
2018-06-17T01:31:06.704Z,14.18
2018-06-17T01:32:06.697Z,14.30
2018-06-17T01:33:06.691Z,14.28
2018-06-17T01:34:06.683Z,14.32
2018-06-17T01:35:06.675Z,14.32
2018-06-17T01:36:06.668Z,14.44
2018-06-17T01:37:06.661Z,14.44
2018-06-17T01:38:06.658Z,14.44
2018-06-17T01:39:06.646Z,14.35
2018-06-17T01:40:06.640Z,14.28
2018-06-17T01:41:06.632Z,14.47
2018-06-17T01:42:06.624Z,14.40
2018-06-17T01:43:06.618Z,14.47
2018-06-17T01:44:06.610Z,14.53
2018-06-17T01:45:06.606Z,14.60
2018-06-17T01:46:06.596Z,14.65
2018-06-17T01:47:06.589Z,14.60
2018-06-17T01:48:06.583Z,14.58
2018-06-17T01:49:06.580Z,14.54
2018-06-17T01:50:06.569Z,14.51
2018-06-17T01:51:06.561Z,14.53
2018-06-17T01:52:06.554Z,14.51
2018-06-17T01:53:06.547Z,14.47
2018-06-17T01:54:06.541Z,14.40
2018-06-17T01:55:06.532Z,14.48
2018-06-17T01:56:06.529Z,14.51
2018-06-17T01:57:06.727Z,14.50
2018-06-17T01:58:06.517Z,14.59
2018-06-17T01:59:06.504Z,14.62
2018-06-17T02:00:06.498Z,14.54
2018-06-17T02:01:06.492Z,14.60
2018-06-17T02:02:06.483Z,14.65
2018-06-17T02:03:06.476Z,14.84
2018-06-17T02:04:06.469Z,14.69
2018-06-17T02:05:06.464Z,14.78
2018-06-17T02:06:06.458Z,14.72
2018-06-17T02:07:06.449Z,14.73
2018-06-17T02:08:06.445Z,14.77
2018-06-17T02:09:06.437Z,14.88
2018-06-17T02:10:06.428Z,14.72
2018-06-17T02:11:06.422Z,14.77
2018-06-17T02:12:06.419Z,14.81
2018-06-17T02:13:06.409Z,14.77
2018-06-17T02:14:06.401Z,14.77
2018-06-17T02:15:06.394Z,14.72
2018-06-17T02:16:06.388Z,14.69
2018-06-17T02:17:06.382Z,14.70
2018-06-17T02:18:06.375Z,14.78
2018-06-17T02:19:06.368Z,14.72
2018-06-17T02:20:06.362Z,14.68
2018-06-17T02:21:06.355Z,14.69
2018-06-17T02:22:06.348Z,14.77
2018-06-17T02:23:06.341Z,14.70
2018-06-17T02:24:06.338Z,14.84
2018-06-17T02:25:06.328Z,14.82
2018-06-17T02:26:06.322Z,14.77
2018-06-17T02:27:06.315Z,14.82
2018-06-17T02:28:06.308Z,14.86
2018-06-17T02:29:06.305Z,14.78
2018-06-17T02:30:06.301Z,14.77
2018-06-17T02:31:06.294Z,14.82
2018-06-17T02:32:06.283Z,14.84
2018-06-17T02:33:06.276Z,14.84
2018-06-17T02:34:06.269Z,14.85
2018-06-17T02:35:06.263Z,14.78
2018-06-17T02:36:06.256Z,14.86
2018-06-17T02:37:06.251Z,14.85
2018-06-17T02:38:06.242Z,14.79
2018-06-17T02:39:06.236Z,14.78
2018-06-17T02:40:06.230Z,14.84
2018-06-17T02:41:06.224Z,14.79
2018-06-17T02:42:06.216Z,14.82
2018-06-17T02:43:06.212Z,14.96
2018-06-17T02:44:06.204Z,14.81
2018-06-17T02:45:06.209Z,14.78
2018-06-17T02:46:06.193Z,14.84
2018-06-17T02:47:06.183Z,14.82
2018-06-17T02:48:06.176Z,14.92
2018-06-17T02:49:06.170Z,14.97
2018-06-17T02:50:06.161Z,14.91
2018-06-17T02:51:06.156Z,14.91
2018-06-17T02:52:06.150Z,14.88
2018-06-17T02:53:06.145Z,14.92
2018-06-17T02:54:06.136Z,14.92
2018-06-17T02:55:06.163Z,14.92
2018-06-17T02:56:06.127Z,14.96
2018-06-17T02:57:06.120Z,14.97
2018-06-17T02:58:06.108Z,15.00
2018-06-17T02:59:06.101Z,14.97
2018-06-17T03:00:06.096Z,14.94
2018-06-17T03:01:06.092Z,14.94
2018-06-17T03:02:06.081Z,15.04
2018-06-17T03:03:06.074Z,15.04
2018-06-17T03:04:06.068Z,15.04
2018-06-17T03:05:06.062Z,15.04
2018-06-17T03:06:06.054Z,15.06
2018-06-17T03:07:06.048Z,15.17
2018-06-17T03:08:06.040Z,15.19
2018-06-17T03:09:06.034Z,15.17
2018-06-17T03:10:06.027Z,15.19
2018-06-17T03:11:06.020Z,15.27
2018-06-17T03:12:06.014Z,15.22
2018-06-17T03:13:06.007Z,15.18
2018-06-17T03:14:06.000Z,15.21
2018-06-17T03:15:06.198Z,15.33
2018-06-17T03:16:05.989Z,15.25
2018-06-17T03:17:05.980Z,15.28
2018-06-17T03:18:05.978Z,15.22
2018-06-17T03:19:05.974Z,15.25
2018-06-17T03:20:05.959Z,15.22
2018-06-17T03:21:05.953Z,15.27
2018-06-17T03:22:05.946Z,15.27
2018-06-17T03:23:05.943Z,15.27
2018-06-17T03:24:05.932Z,15.28
2018-06-17T03:25:06.129Z,15.22
2018-06-17T03:26:05.918Z,15.25
2018-06-17T03:27:05.920Z,15.19
2018-06-17T03:28:05.905Z,15.19
2018-06-17T03:29:05.899Z,15.27
2018-06-17T03:30:05.896Z,15.22
2018-06-17T03:31:05.886Z,15.28
2018-06-17T03:32:05.883Z,15.25
2018-06-17T03:33:05.873Z,15.27
2018-06-17T03:34:05.866Z,15.22
2018-06-17T03:35:05.860Z,15.27
2018-06-17T03:36:05.853Z,15.22
2018-06-17T03:37:05.846Z,15.21
2018-06-17T03:38:05.841Z,15.31
2018-06-17T03:39:05.832Z,15.24
2018-06-17T03:40:05.827Z,15.31
2018-06-17T03:41:05.827Z,15.31
2018-06-17T03:42:05.819Z,15.35
2018-06-17T03:43:05.805Z,15.33
2018-06-17T03:44:05.804Z,15.39
2018-06-17T03:45:05.793Z,15.37
2018-06-17T03:46:05.792Z,15.46
2018-06-17T03:47:05.790Z,15.40
2018-06-17T03:48:05.779Z,15.40
2018-06-17T03:49:05.767Z,15.36
2018-06-17T03:50:05.765Z,15.42
2018-06-17T03:51:05.757Z,15.44
2018-06-17T03:52:05.747Z,15.33
2018-06-17T03:53:05.745Z,15.35
2018-06-17T03:54:05.734Z,15.37
2018-06-17T03:55:05.727Z,15.42
2018-06-17T03:56:05.720Z,15.37
2018-06-17T03:57:05.715Z,15.39
2018-06-17T03:58:05.708Z,15.39
2018-06-17T03:59:05.705Z,15.36
2018-06-17T04:00:05.695Z,15.37
2018-06-17T04:01:05.688Z,15.36
2018-06-17T04:02:05.686Z,15.39
2018-06-17T04:03:05.674Z,15.42
2018-06-17T04:04:05.676Z,15.40
2018-06-17T04:05:05.665Z,15.43
2018-06-17T04:06:05.655Z,15.42
2018-06-17T04:07:05.650Z,15.40
2018-06-17T04:08:05.644Z,15.52
2018-06-17T04:09:05.636Z,15.44
2018-06-17T04:10:05.628Z,15.42
2018-06-17T04:11:05.622Z,15.49
2018-06-17T04:12:05.821Z,15.55
2018-06-17T04:13:05.609Z,15.47
2018-06-17T04:14:05.604Z,15.54
2018-06-17T04:15:05.596Z,15.42
2018-06-17T04:16:05.625Z,15.47
2018-06-17T04:17:05.583Z,15.43
2018-06-17T04:18:05.577Z,15.39
2018-06-17T04:19:05.569Z,15.44
2018-06-17T04:20:05.568Z,15.46
2018-06-17T04:21:05.558Z,15.47
2018-06-17T04:22:05.551Z,15.39
2018-06-17T04:23:05.544Z,15.42
2018-06-17T04:24:05.537Z,15.57
2018-06-17T04:25:05.531Z,15.55
2018-06-17T04:26:05.524Z,15.57
2018-06-17T04:27:05.518Z,15.52
2018-06-17T04:28:05.511Z,15.55
2018-06-17T04:29:05.507Z,15.58
2018-06-17T04:30:05.500Z,15.67
2018-06-17T04:32:05.486Z,15.67
2018-06-17T04:33:05.683Z,15.64
2018-06-17T04:34:05.473Z,15.54
2018-06-17T04:35:05.467Z,15.64
2018-06-17T04:37:05.460Z,15.67
2018-06-17T04:38:05.447Z,15.61
2018-06-17T04:39:05.441Z,15.76
2018-06-17T04:40:05.437Z,15.73
2018-06-17T04:41:05.429Z,15.72
2018-06-17T04:42:05.423Z,15.58
2018-06-17T04:43:05.418Z,15.61
2018-06-17T04:44:05.417Z,15.76
2018-06-17T04:45:05.612Z,15.62
2018-06-17T04:46:05.398Z,15.67
2018-06-17T04:47:05.392Z,15.62
2018-06-17T04:48:05.386Z,15.67
2018-06-17T04:49:05.380Z,15.64
2018-06-17T04:50:05.378Z,15.64
2018-06-17T04:51:05.367Z,15.72
2018-06-17T04:52:05.361Z,15.84
2018-06-17T04:53:05.359Z,15.86
2018-06-17T04:54:05.348Z,15.84
2018-06-17T04:55:05.344Z,15.77
2018-06-17T04:56:05.339Z,15.79
2018-06-17T04:57:05.331Z,15.88
2018-06-17T04:58:05.325Z,15.94
2018-06-17T04:59:05.319Z,15.92
2018-06-17T05:00:05.354Z,15.88
2018-06-17T05:01:05.308Z,15.84
2018-06-17T05:02:05.299Z,15.83
2018-06-17T05:03:05.293Z,15.79
2018-06-17T05:04:05.291Z,15.80
2018-06-17T05:05:05.484Z,15.83
2018-06-17T05:06:05.282Z,15.91
2018-06-17T05:07:05.275Z,15.82
2018-06-17T05:08:05.264Z,15.98
2018-06-17T05:09:05.257Z,16.01
2018-06-17T05:10:05.253Z,16.04
2018-06-17T05:11:05.244Z,16.01
2018-06-17T05:12:05.239Z,16.09
2018-06-17T05:13:05.233Z,16.01
2018-06-17T05:14:05.428Z,15.94
2018-06-17T05:15:05.221Z,16.02
2018-06-17T05:16:05.219Z,15.95
2018-06-17T05:17:05.229Z,15.92
2018-06-17T05:18:05.205Z,16.04
2018-06-17T05:20:05.192Z,16.04
2018-06-17T05:21:05.185Z,16.04
2018-06-17T05:22:05.184Z,16.31
2018-06-17T05:23:05.176Z,16.41
2018-06-17T05:24:05.172Z,16.36
2018-06-17T05:25:05.163Z,16.24
2018-06-17T05:26:05.159Z,16.21
2018-06-17T05:27:05.151Z,16.28
2018-06-17T05:28:05.149Z,16.33
2018-06-17T05:29:05.141Z,16.31
2018-06-17T05:30:05.134Z,16.21
2018-06-17T05:31:05.129Z,16.21
2018-06-17T05:32:05.131Z,16.01
2018-06-17T05:33:05.120Z,16.26
2018-06-17T05:34:05.113Z,16.26
2018-06-17T05:35:05.108Z,16.26
2018-06-17T05:36:05.100Z,16.04
2018-06-17T05:37:05.102Z,16.13
2018-06-17T05:38:05.088Z,16.09
2018-06-17T05:39:05.082Z,16.15
2018-06-17T05:40:05.080Z,16.24
2018-06-17T05:41:05.071Z,16.26
2018-06-17T05:42:05.071Z,16.33
2018-06-17T05:43:05.064Z,16.36
2018-06-17T05:44:05.055Z,16.39
2018-06-17T05:45:05.050Z,16.41
2018-06-17T05:46:05.047Z,16.41
2018-06-17T05:47:05.038Z,16.38
2018-06-17T05:48:05.033Z,16.39
2018-06-17T05:49:05.028Z,16.26
2018-06-17T05:50:05.021Z,16.23
2018-06-17T05:51:05.016Z,16.24
2018-06-17T05:52:05.010Z,16.05
2018-06-17T05:53:05.005Z,16.21
2018-06-17T05:54:04.998Z,16.21
2018-06-17T05:55:04.993Z,16.38
2018-06-17T05:56:04.989Z,16.42
2018-06-17T05:57:04.985Z,16.36
2018-06-17T05:58:04.976Z,16.36
2018-06-17T05:59:04.973Z,16.46
2018-06-17T06:00:04.972Z,16.41
2018-06-17T06:01:04.960Z,16.39
2018-06-17T06:02:04.953Z,16.51
2018-06-17T06:03:04.954Z,16.33
2018-06-17T06:05:04.938Z,16.28
2018-06-17T06:06:04.936Z,16.29
2018-06-17T06:07:04.926Z,16.08
2018-06-17T06:08:04.923Z,16.12
2018-06-17T06:09:04.920Z,16.23
2018-06-17T06:10:04.913Z,16.26
2018-06-17T06:11:04.912Z,16.38
2018-06-17T06:12:04.922Z,16.41
2018-06-17T06:13:04.895Z,16.51
2018-06-17T06:14:04.895Z,16.54
2018-06-17T06:15:05.086Z,16.68
2018-06-17T06:16:04.878Z,16.68
2018-06-17T06:17:04.872Z,16.65
2018-06-17T06:18:04.866Z,16.68
2018-06-17T06:19:04.861Z,16.66
2018-06-17T06:20:04.857Z,16.64
2018-06-17T06:21:04.851Z,16.66
2018-06-17T06:22:04.845Z,16.75
2018-06-17T06:23:04.840Z,16.75
2018-06-17T06:24:04.841Z,16.87
2018-06-17T06:25:04.836Z,16.93
2018-06-17T06:26:04.829Z,16.84
2018-06-17T06:27:04.821Z,16.78
2018-06-17T06:28:04.815Z,16.78
2018-06-17T06:29:04.820Z,16.79
2018-06-17T06:30:04.805Z,16.96
2018-06-17T06:31:04.868Z,17.01
2018-06-17T06:32:04.799Z,17.08
2018-06-17T06:33:04.792Z,17.19
2018-06-17T06:34:04.785Z,17.15
2018-06-17T06:35:04.781Z,17.11
2018-06-17T06:36:04.777Z,17.02
2018-06-17T06:37:04.773Z,16.93
2018-06-17T06:38:04.768Z,16.99
2018-06-17T06:39:04.765Z,16.99
2018-06-17T06:40:04.762Z,17.02
2018-06-17T06:41:04.758Z,17.16
2018-06-17T06:42:04.750Z,17.26
2018-06-17T06:43:04.745Z,17.22
2018-06-17T06:44:04.744Z,17.15
2018-06-17T06:45:04.737Z,17.27
2018-06-17T06:46:04.734Z,17.24
2018-06-17T06:47:04.731Z,17.11
2018-06-17T06:48:04.730Z,16.94
2018-06-17T06:49:04.721Z,16.94
2018-06-17T06:50:04.750Z,16.87
2018-06-17T06:51:04.757Z,17.04
2018-06-17T06:52:04.711Z,17.16
2018-06-17T06:53:04.706Z,17.14
2018-06-17T06:54:04.703Z,17.20
2018-06-17T06:55:04.698Z,17.23
2018-06-17T06:56:04.690Z,17.29
2018-06-17T06:57:04.889Z,17.30
2018-06-17T06:58:04.681Z,17.31
2018-06-17T06:59:04.678Z,17.30
2018-06-17T07:00:04.877Z,17.27
2018-06-17T07:01:04.671Z,17.38
2018-06-17T07:02:04.666Z,17.52
2018-06-17T07:03:04.662Z,17.79
2018-06-17T07:04:04.659Z,17.80
2018-06-17T07:05:04.657Z,17.87
2018-06-17T07:06:04.654Z,17.80
2018-06-17T07:07:04.648Z,17.82
2018-06-17T07:08:04.644Z,17.83
2018-06-17T07:09:04.641Z,17.67
2018-06-17T07:10:04.643Z,17.72
2018-06-17T07:11:04.642Z,17.80
2018-06-17T07:12:04.632Z,17.76
2018-06-17T07:13:04.628Z,17.71
2018-06-17T07:14:04.624Z,17.70
2018-06-17T07:15:04.627Z,17.71
2018-06-17T07:16:04.619Z,17.68
2018-06-17T07:17:04.624Z,17.57
2018-06-17T07:18:05.815Z,17.65
2018-06-17T07:19:04.607Z,17.65
2018-06-17T07:20:04.604Z,17.68
2018-06-17T07:21:04.600Z,17.67
2018-06-17T07:22:04.604Z,17.64
2018-06-17T07:23:04.597Z,17.63
2018-06-17T07:24:04.590Z,17.63
2018-06-17T07:25:04.620Z,17.63
2018-06-17T07:26:04.584Z,17.59
2018-06-17T07:27:04.588Z,17.63
2018-06-17T07:28:04.576Z,17.57
2018-06-17T07:29:04.573Z,17.54
2018-06-17T07:30:04.573Z,17.57
2018-06-17T07:31:04.565Z,17.51
2018-06-17T07:32:04.561Z,17.45
2018-06-17T07:33:04.564Z,17.46
2018-06-17T07:34:04.554Z,17.60
2018-06-17T07:35:04.551Z,17.70
2018-06-17T07:36:04.550Z,17.79
2018-06-17T07:37:04.551Z,17.85
2018-06-17T07:38:04.745Z,17.80
2018-06-17T07:39:04.538Z,17.79
2018-06-17T07:40:04.533Z,17.85
2018-06-17T07:41:04.538Z,17.85
2018-06-17T07:42:04.527Z,17.76
2018-06-17T07:43:04.524Z,17.80
2018-06-17T07:44:04.521Z,17.95
2018-06-17T07:45:04.519Z,18.08
2018-06-17T07:46:04.515Z,18.04
2018-06-17T07:47:04.517Z,18.11
2018-06-17T07:48:04.515Z,18.23
2018-06-17T07:49:04.512Z,18.15
2018-06-17T07:50:04.506Z,18.28
2018-06-17T07:51:04.502Z,18.26
2018-06-17T07:52:04.503Z,18.10
2018-06-17T07:53:04.497Z,18.16
2018-06-17T07:54:04.493Z,18.26
2018-06-17T07:55:04.491Z,18.25
2018-06-17T07:56:04.548Z,18.20
2018-06-17T07:57:04.492Z,18.19
2018-06-17T07:58:04.485Z,18.26
2018-06-17T07:59:04.481Z,18.37
2018-06-17T08:00:04.479Z,18.33
2018-06-17T08:01:04.478Z,18.45
2018-06-17T08:02:04.477Z,18.58
2018-06-17T08:03:04.474Z,18.71
2018-06-17T08:04:04.472Z,18.73
2018-06-17T08:05:04.471Z,18.74
2018-06-17T08:06:04.468Z,18.88
2018-06-17T08:07:04.469Z,18.92
2018-06-17T08:08:04.669Z,18.80
2018-06-17T08:09:04.466Z,18.65
2018-06-17T08:10:04.473Z,18.55
2018-06-17T08:11:04.558Z,18.34
2018-06-17T08:12:04.463Z,18.25
2018-06-17T08:13:04.465Z,18.29
2018-06-17T08:14:04.460Z,18.50
2018-06-17T08:15:04.461Z,18.50
2018-06-17T08:16:04.457Z,18.50
2018-06-17T08:17:04.453Z,18.55
2018-06-17T08:18:04.459Z,18.50
2018-06-17T08:19:04.453Z,18.47
2018-06-17T08:20:04.449Z,18.53
2018-06-17T08:21:04.449Z,18.50
2018-06-17T08:22:04.450Z,18.53
2018-06-17T08:23:04.441Z,18.40
2018-06-17T08:24:04.443Z,18.20
2018-06-17T08:25:04.437Z,18.23
2018-06-17T08:26:04.434Z,18.26
2018-06-17T08:27:04.432Z,18.33
2018-06-17T08:28:04.435Z,18.45
2018-06-17T08:29:04.431Z,18.52
2018-06-17T08:30:04.428Z,18.55
2018-06-17T08:31:04.423Z,18.73
2018-06-17T08:32:04.421Z,18.73
2018-06-17T08:33:04.419Z,18.92
2018-06-17T08:34:04.417Z,18.92
2018-06-17T08:35:04.421Z,18.95
2018-06-17T08:36:04.414Z,19.12
2018-06-17T08:37:04.413Z,19.26
2018-06-17T08:38:04.612Z,19.37
2018-06-17T08:39:04.411Z,19.39
2018-06-17T08:40:04.408Z,19.26
2018-06-17T08:41:04.409Z,19.19
2018-06-17T08:42:04.405Z,19.12
2018-06-17T08:43:04.404Z,18.84
2018-06-17T08:44:04.410Z,18.74
2018-06-17T08:45:04.402Z,18.53
2018-06-17T08:46:04.406Z,18.49
2018-06-17T08:47:04.398Z,18.50
2018-06-17T08:48:04.397Z,18.55
2018-06-17T08:49:04.396Z,18.65
2018-06-17T08:50:04.399Z,18.58
2018-06-17T08:51:04.396Z,18.59
2018-06-17T08:52:04.388Z,18.52
2018-06-17T08:53:04.589Z,18.50
2018-06-17T08:54:04.385Z,18.45
2018-06-17T08:55:04.381Z,18.50
2018-06-17T08:56:04.379Z,18.50
2018-06-17T08:57:04.579Z,18.45
2018-06-17T08:58:04.373Z,18.52
2018-06-17T08:59:04.375Z,18.73
2018-06-17T09:00:04.575Z,18.83
2018-06-17T09:01:04.372Z,18.88
2018-06-17T09:02:04.369Z,18.90
2018-06-17T09:03:04.363Z,18.99
2018-06-17T09:04:04.364Z,19.09
2018-06-17T09:05:04.363Z,19.16
2018-06-17T09:06:04.360Z,19.19
2018-06-17T09:07:04.360Z,19.29
2018-06-17T09:08:04.357Z,19.19
2018-06-17T09:09:04.362Z,19.29
2018-06-17T09:10:04.358Z,19.36
2018-06-17T09:11:04.352Z,19.47
2018-06-17T09:12:04.353Z,19.33
2018-06-17T09:13:04.351Z,19.26
2018-06-17T09:14:04.349Z,19.33
2018-06-17T09:15:04.348Z,19.47
2018-06-17T09:16:04.348Z,19.51
2018-06-17T09:17:04.351Z,19.48
2018-06-17T09:18:04.352Z,19.39
2018-06-17T09:19:04.345Z,19.24
2018-06-17T09:20:04.352Z,19.19
2018-06-17T09:21:04.345Z,19.00
2018-06-17T09:22:04.341Z,18.86
2018-06-17T09:23:04.343Z,18.83
2018-06-17T09:24:04.342Z,18.81
2018-06-17T09:25:04.342Z,18.86
2018-06-17T09:26:04.337Z,18.95
2018-06-17T09:27:04.336Z,19.15
2018-06-17T09:28:04.341Z,19.26
2018-06-17T09:29:04.539Z,19.30
2018-06-17T09:30:04.332Z,19.49
2018-06-17T09:31:04.333Z,19.51
2018-06-17T09:32:04.401Z,19.73
2018-06-17T09:33:04.332Z,19.81
2018-06-17T09:34:04.329Z,19.91
2018-06-17T09:35:04.332Z,19.95
2018-06-17T09:36:04.335Z,20.25
2018-06-17T09:37:04.332Z,20.51
2018-06-17T09:38:04.389Z,20.74
2018-06-17T09:39:04.340Z,20.74
2018-06-17T09:40:04.338Z,20.88
2018-06-17T09:41:04.340Z,20.93
2018-06-17T09:42:04.342Z,20.96
2018-06-17T09:43:04.345Z,20.87
2018-06-17T09:45:04.355Z,20.84
2018-06-17T09:46:04.363Z,20.87
2018-06-17T09:47:04.359Z,20.77
2018-06-17T09:48:04.367Z,20.41
2018-06-17T09:49:04.365Z,20.24
2018-06-17T09:50:04.369Z,20.25
2018-06-17T09:51:04.369Z,20.22
2018-06-17T09:52:04.414Z,20.24
2018-06-17T09:53:04.378Z,20.16
2018-06-17T09:54:04.379Z,20.16
2018-06-17T09:55:04.377Z,20.14
2018-06-17T09:56:04.381Z,20.03
2018-06-17T09:57:04.380Z,20.04
2018-06-17T09:58:04.384Z,19.85
2018-06-17T09:59:04.381Z,19.66
2018-06-17T10:00:04.382Z,19.76
2018-06-17T10:01:04.384Z,19.69
2018-06-17T10:02:04.382Z,19.76
2018-06-17T10:04:04.382Z,19.74
2018-06-17T10:05:04.382Z,19.79
2018-06-17T10:06:04.381Z,19.89
2018-06-17T10:07:04.382Z,20.16
2018-06-17T10:08:04.381Z,20.25
2018-06-17T10:09:04.394Z,20.29
2018-06-17T10:10:04.383Z,20.29
2018-06-17T10:11:04.385Z,20.22
2018-06-17T10:12:04.382Z,20.18
2018-06-17T10:13:04.383Z,20.19
2018-06-17T10:14:04.382Z,20.25
2018-06-17T10:15:04.390Z,20.19
2018-06-17T10:16:04.384Z,19.96
2018-06-17T10:17:04.383Z,19.89
2018-06-17T10:18:04.584Z,19.85
2018-06-17T10:19:04.391Z,19.77
2018-06-17T10:20:04.382Z,19.85
2018-06-17T10:21:04.398Z,19.96
2018-06-17T10:22:04.381Z,20.29
2018-06-17T10:23:04.382Z,20.37
2018-06-17T10:24:04.382Z,20.11
2018-06-17T10:25:04.384Z,19.89
2018-06-17T10:26:04.585Z,19.69
2018-06-17T10:27:04.386Z,19.82
2018-06-17T10:28:04.383Z,19.82
2018-06-17T10:29:04.384Z,19.74
2018-06-17T10:30:04.384Z,19.67
2018-06-17T10:31:04.385Z,19.86
2018-06-17T10:32:04.384Z,19.94
2018-06-17T10:33:04.385Z,20.09
2018-06-17T10:34:04.388Z,20.04
2018-06-17T10:35:04.390Z,20.03
2018-06-17T10:36:04.389Z,20.16
2018-06-17T10:37:04.391Z,20.19
2018-06-17T10:38:04.428Z,20.18
2018-06-17T10:39:04.388Z,20.24
2018-06-17T10:40:04.392Z,20.14
2018-06-17T10:41:04.385Z,19.94
2018-06-17T10:42:04.389Z,19.88
2018-06-17T10:43:04.384Z,19.67
2018-06-17T10:44:04.389Z,19.51
2018-06-17T10:45:04.386Z,19.34
2018-06-17T10:46:04.590Z,19.45
2018-06-17T10:47:04.385Z,19.41
2018-06-17T10:48:04.381Z,19.36
2018-06-17T10:49:04.382Z,19.14
2018-06-17T10:50:04.378Z,19.12
2018-06-17T10:52:04.377Z,19.16
2018-06-17T10:53:04.374Z,19.02
2018-06-17T10:54:04.375Z,19.11
2018-06-17T10:55:04.376Z,19.15
2018-06-17T10:56:04.768Z,19.02
2018-06-17T10:57:04.368Z,18.90
2018-06-17T10:58:04.366Z,18.88
2018-06-17T10:59:04.364Z,18.81
2018-06-17T11:00:04.362Z,18.86
2018-06-17T11:01:04.565Z,18.84
2018-06-17T11:02:04.360Z,18.74
2018-06-17T11:03:04.356Z,18.62
2018-06-17T11:04:04.354Z,18.60
2018-06-17T11:05:04.352Z,18.63
2018-06-17T11:06:04.349Z,18.52
2018-06-17T11:07:04.347Z,18.47
2018-06-17T11:08:04.344Z,18.55
2018-06-17T11:09:04.341Z,18.60
2018-06-17T11:10:04.540Z,18.50
2018-06-17T11:11:04.335Z,18.58
2018-06-17T11:12:04.336Z,18.53
2018-06-17T11:13:04.366Z,18.53
2018-06-17T11:14:04.326Z,18.55
2018-06-17T11:15:04.329Z,18.62
2018-06-17T11:16:04.320Z,18.43
2018-06-17T11:17:04.318Z,18.41
2018-06-17T11:18:04.315Z,18.49
2018-06-17T11:19:04.311Z,18.50
2018-06-17T11:20:04.315Z,18.62
2018-06-17T11:21:04.307Z,18.75
2018-06-17T11:22:04.306Z,18.55
2018-06-17T11:23:04.304Z,18.49
2018-06-17T11:24:04.499Z,18.56
2018-06-17T11:25:04.292Z,18.45
2018-06-17T11:26:04.491Z,18.45
2018-06-17T11:27:04.290Z,18.52
2018-06-17T11:28:04.284Z,18.65
2018-06-17T11:29:04.482Z,18.74
2018-06-17T11:30:04.284Z,18.92
2018-06-17T11:31:04.274Z,18.93
2018-06-17T11:32:04.270Z,19.12
2018-06-17T11:33:04.270Z,19.15
2018-06-17T11:34:04.265Z,19.18
2018-06-17T11:35:04.264Z,19.16
2018-06-17T11:36:04.260Z,19.21
2018-06-17T11:37:04.258Z,19.22
2018-06-17T11:38:04.256Z,19.27
2018-06-17T11:39:04.420Z,19.19
2018-06-17T11:40:04.255Z,19.19
2018-06-17T11:41:04.252Z,19.24
2018-06-17T11:42:04.249Z,19.44
2018-06-17T11:43:04.245Z,19.69
2018-06-17T11:44:04.250Z,19.59
2018-06-17T11:45:04.242Z,19.48
2018-06-17T11:46:04.240Z,19.41
2018-06-17T11:47:04.239Z,19.45
2018-06-17T11:48:04.242Z,19.59
2018-06-17T11:49:04.236Z,19.71
2018-06-17T11:50:04.239Z,19.67
2018-06-17T11:51:04.234Z,19.76
2018-06-17T11:52:04.235Z,19.71
2018-06-17T11:53:04.434Z,19.76
2018-06-17T11:54:04.230Z,19.86
2018-06-17T11:55:04.229Z,19.95
2018-06-17T11:56:04.228Z,19.91
2018-06-17T11:57:04.229Z,19.71
2018-06-17T11:58:04.226Z,19.79
2018-06-17T11:59:04.225Z,19.81
2018-06-17T12:00:04.226Z,19.62
2018-06-17T12:01:04.225Z,19.69
2018-06-17T12:02:04.223Z,19.36
2018-06-17T12:03:04.225Z,19.22
2018-06-17T12:04:04.221Z,18.92
2018-06-17T12:05:04.223Z,18.93
2018-06-17T12:06:04.221Z,18.96
2018-06-17T12:07:04.217Z,19.19
2018-06-17T12:08:04.215Z,19.21
2018-06-17T12:09:04.214Z,19.08
2018-06-17T12:10:04.222Z,19.16
2018-06-17T12:11:04.219Z,19.14
2018-06-17T12:12:04.209Z,19.16
2018-06-17T12:13:04.212Z,18.95
2018-06-17T12:14:04.205Z,18.77
2018-06-17T12:15:04.209Z,18.83
2018-06-17T12:16:04.203Z,18.77
2018-06-17T12:17:04.199Z,18.73
2018-06-17T12:18:04.199Z,18.80
2018-06-17T12:19:04.195Z,18.80
2018-06-17T12:20:04.193Z,18.84
2018-06-17T12:21:04.189Z,18.92
2018-06-17T12:22:04.188Z,19.19
2018-06-17T12:23:04.186Z,19.15
2018-06-17T12:24:04.181Z,19.36
2018-06-17T12:25:04.179Z,19.30
2018-06-17T12:26:04.180Z,19.33
2018-06-17T12:27:04.174Z,19.45
2018-06-17T12:28:04.176Z,19.64
2018-06-17T12:29:04.173Z,19.92
2018-06-17T12:30:04.168Z,20.40
2018-06-17T12:31:04.168Z,20.70
2018-06-17T12:32:04.166Z,21.00
2018-06-17T12:33:04.371Z,21.17
2018-06-17T12:34:04.371Z,21.18
2018-06-17T12:35:04.165Z,21.05
2018-06-17T12:36:04.165Z,20.85
2018-06-17T12:37:04.167Z,20.59
2018-06-17T12:38:04.164Z,20.74
2018-06-17T12:39:04.164Z,20.60
2018-06-17T12:40:04.164Z,20.41
2018-06-17T12:41:04.166Z,20.47
2018-06-17T12:42:04.163Z,20.36
2018-06-17T12:43:04.163Z,20.25
2018-06-17T12:44:04.163Z,20.07
2018-06-17T12:45:04.163Z,19.95
2018-06-17T12:46:04.162Z,19.96
2018-06-17T12:47:04.161Z,20.00
2018-06-17T12:48:04.165Z,19.99
2018-06-17T12:49:04.402Z,19.77
2018-06-17T12:50:04.164Z,19.76
2018-06-17T12:51:04.158Z,19.48
2018-06-17T12:52:04.157Z,19.31
2018-06-17T12:53:04.158Z,19.24
2018-06-17T12:54:04.153Z,19.16
2018-06-17T12:55:04.158Z,19.12
2018-06-17T12:56:04.150Z,19.15
2018-06-17T12:57:04.149Z,19.04
2018-06-17T12:58:04.151Z,18.95
2018-06-17T12:59:04.144Z,18.86
2018-06-17T13:00:04.142Z,18.84